createdAt,value
2023-01-31T00:02:22.478Z,4.50
2023-01-31T00:06:51.267Z,4.50
2023-01-31T00:11:16.305Z,4.40
2023-01-31T00:15:40.317Z,4.40
2023-01-31T00:20:06.788Z,4.30
2023-01-31T00:24:30.814Z,4.30
2023-01-31T00:28:56.577Z,4.40
2023-01-31T00:33:20.410Z,4.40
2023-01-31T00:37:45.649Z,4.40
2023-01-31T00:42:10.970Z,4.30
2023-01-31T00:46:37.599Z,4.30
2023-01-31T00:51:02.243Z,4.10
2023-01-31T00:55:27.637Z,4.00
2023-01-31T00:59:52.050Z,4.00
2023-01-31T01:04:16.101Z,4.00
2023-01-31T01:08:41.479Z,4.00
2023-01-31T01:13:07.594Z,3.90
2023-01-31T01:17:36.118Z,3.80
2023-01-31T01:22:18.951Z,3.70
2023-01-31T01:27:05.121Z,3.70
2023-01-31T01:31:50.687Z,3.60
2023-01-31T01:36:35.949Z,3.50
2023-01-31T01:41:20.594Z,3.50
2023-01-31T01:46:06.812Z,3.50
2023-01-31T01:50:52.588Z,3.50
2023-01-31T01:55:41.933Z,3.60
2023-01-31T02:00:27.501Z,3.60
2023-01-31T02:05:16.272Z,3.70
2023-01-31T02:10:06.717Z,3.80
2023-01-31T02:14:51.683Z,3.80
2023-01-31T02:19:47.563Z,3.90
2023-01-31T02:25:08.592Z,4.00
2023-01-31T02:30:20.204Z,4.00
2023-01-31T02:35:14.546Z,3.90
2023-01-31T02:40:15.101Z,4.00
2023-01-31T02:45:09.114Z,4.00
2023-01-31T02:49:59.136Z,4.00
2023-01-31T02:55:07.026Z,4.00
2023-01-31T02:59:52.156Z,4.00
2023-01-31T03:04:36.832Z,4.00
2023-01-31T03:09:25.780Z,4.00
2023-01-31T03:14:24.316Z,3.90
2023-01-31T03:19:15.417Z,4.00
2023-01-31T03:24:01.093Z,4.00
2023-01-31T03:28:45.556Z,4.00
2023-01-31T03:33:36.232Z,4.00
2023-01-31T03:38:26.599Z,4.00
2023-01-31T03:43:17.307Z,4.00
2023-01-31T03:48:06.649Z,4.00
2023-01-31T03:53:01.550Z,4.10
2023-01-31T03:57:51.151Z,4.00
2023-01-31T04:02:38.077Z,4.00
2023-01-31T04:07:24.006Z,4.00
2023-01-31T04:12:14.501Z,4.00
2023-01-31T04:16:58.816Z,4.00
2023-01-31T04:21:42.922Z,4.00
2023-01-31T04:26:27.050Z,4.00
2023-01-31T04:31:12.632Z,4.00
2023-01-31T04:35:56.855Z,4.00
2023-01-31T04:40:40.947Z,4.00
2023-01-31T04:45:25.165Z,3.90
2023-01-31T04:50:12.074Z,3.90
2023-01-31T04:54:56.154Z,3.80
2023-01-31T04:59:40.181Z,3.80
2023-01-31T05:04:25.590Z,3.80
2023-01-31T05:09:12.968Z,3.70
2023-01-31T05:13:57.161Z,3.70
2023-01-31T05:18:41.727Z,3.70
2023-01-31T05:23:25.689Z,3.70
2023-01-31T05:28:11.680Z,3.60
2023-01-31T05:32:56.728Z,3.60
2023-01-31T05:37:42.576Z,3.60
2023-01-31T05:42:26.616Z,3.60
2023-01-31T05:47:12.165Z,3.60
2023-01-31T05:51:56.243Z,3.60
2023-01-31T05:56:40.253Z,3.60
2023-01-31T06:01:27.253Z,3.60
2023-01-31T06:06:12.980Z,3.60
2023-01-31T06:10:57.126Z,3.60
2023-01-31T06:15:44.556Z,3.70
2023-01-31T06:20:29.121Z,3.70
2023-01-31T06:25:15.015Z,3.70
2023-01-31T06:30:00.187Z,3.70
2023-01-31T06:34:44.297Z,3.80
2023-01-31T06:39:28.544Z,3.80
2023-01-31T06:44:14.109Z,3.80
2023-01-31T06:48:58.359Z,3.80
2023-01-31T06:53:42.371Z,3.80
2023-01-31T06:58:26.551Z,3.80
2023-01-31T07:03:12.913Z,3.80
2023-01-31T07:07:57.151Z,3.90
2023-01-31T07:12:41.453Z,3.90
2023-01-31T07:17:25.578Z,3.90
2023-01-31T07:22:11.174Z,3.90
2023-01-31T07:26:55.297Z,3.90
2023-01-31T07:31:39.467Z,4.00
2023-01-31T07:36:26.793Z,4.00
2023-01-31T07:41:12.848Z,4.10
2023-01-31T07:45:56.986Z,4.10
2023-01-31T07:50:41.048Z,4.10
2023-01-31T07:55:25.175Z,4.10
2023-01-31T08:00:33.365Z,4.10
2023-01-31T08:05:17.774Z,4.00
2023-01-31T08:10:02.074Z,4.10
2023-01-31T08:14:46.710Z,4.20
2023-01-31T08:19:32.837Z,4.40
2023-01-31T08:24:17.137Z,4.50
2023-01-31T08:29:01.504Z,4.60
2023-01-31T08:33:46.000Z,4.70
2023-01-31T08:38:31.949Z,4.80
2023-01-31T08:43:16.619Z,4.90
2023-01-31T08:48:02.067Z,4.90
2023-01-31T08:52:46.197Z,4.90
2023-01-31T08:57:32.405Z,4.90
2023-01-31T09:02:16.685Z,4.80
2023-01-31T09:06:40.514Z,4.80
2023-01-31T09:11:04.563Z,4.80
2023-01-31T09:15:29.994Z,4.80
2023-01-31T09:19:54.058Z,4.90
2023-01-31T09:24:17.982Z,4.80
2023-01-31T09:28:42.894Z,4.90
2023-01-31T09:33:08.164Z,5.00
2023-01-31T09:37:33.414Z,5.00
2023-01-31T09:42:01.094Z,5.10
2023-01-31T09:46:28.421Z,5.20
2023-01-31T09:50:56.594Z,5.20
2023-01-31T09:55:26.531Z,5.20
2023-01-31T09:59:54.960Z,5.20
2023-01-31T10:04:39.734Z,5.20
2023-01-31T10:09:11.397Z,5.30
2023-01-31T10:13:39.225Z,5.40
2023-01-31T10:18:07.865Z,5.50
2023-01-31T10:22:39.168Z,5.50
2023-01-31T10:27:09.042Z,5.60
2023-01-31T10:31:37.913Z,5.70
2023-01-31T10:36:05.844Z,5.80
2023-01-31T10:40:36.148Z,5.80
2023-01-31T10:45:07.091Z,5.80
2023-01-31T10:49:31.702Z,5.90
2023-01-31T10:54:13.065Z,6.00
2023-01-31T10:58:38.862Z,6.00
2023-01-31T11:03:05.050Z,6.10
2023-01-31T11:07:31.909Z,6.00
2023-01-31T11:11:58.891Z,6.00
2023-01-31T11:16:23.075Z,5.90
2023-01-31T11:20:49.321Z,5.90
2023-01-31T11:25:22.210Z,5.90
2023-01-31T11:29:50.307Z,5.90
2023-01-31T11:34:23.075Z,5.90
2023-01-31T11:38:48.479Z,5.80
2023-01-31T11:43:25.951Z,5.80
2023-01-31T11:47:52.221Z,5.80
2023-01-31T11:52:18.247Z,5.80
2023-01-31T11:56:46.150Z,5.80
2023-01-31T12:01:15.762Z,5.80
2023-01-31T12:05:43.718Z,5.80
2023-01-31T12:10:31.612Z,5.70
2023-01-31T12:15:01.616Z,5.70
2023-01-31T12:19:40.040Z,5.70
2023-01-31T12:24:12.636Z,5.60
2023-01-31T12:28:52.289Z,5.60
2023-01-31T12:33:38.083Z,5.70
2023-01-31T12:38:14.590Z,5.70
2023-01-31T12:42:51.977Z,5.70
2023-01-31T12:47:30.066Z,5.70
2023-01-31T12:52:03.016Z,5.70
2023-01-31T12:56:45.152Z,5.70
2023-01-31T13:01:13.207Z,5.70
2023-01-31T13:05:43.966Z,5.70
2023-01-31T13:10:26.666Z,5.70
2023-01-31T13:14:57.631Z,5.70
2023-01-31T13:19:27.390Z,5.70
2023-01-31T13:23:55.907Z,5.60
2023-01-31T13:28:26.698Z,5.60
2023-01-31T13:32:51.954Z,5.60
2023-01-31T13:37:20.870Z,5.60
2023-01-31T13:41:44.657Z,5.60
2023-01-31T13:46:12.721Z,5.70
2023-01-31T13:50:42.320Z,5.70
2023-01-31T13:55:11.392Z,5.70
2023-01-31T13:59:37.843Z,5.70
2023-01-31T14:04:30.371Z,5.70
2023-01-31T14:09:00.295Z,5.70
2023-01-31T14:13:40.560Z,5.70
2023-01-31T14:18:04.638Z,5.70
2023-01-31T14:22:34.082Z,5.70
2023-01-31T14:26:58.544Z,5.70
2023-01-31T14:31:22.741Z,5.70
2023-01-31T14:36:28.870Z,5.70
2023-01-31T14:41:04.216Z,5.60
2023-01-31T14:45:52.763Z,5.60
2023-01-31T14:50:36.129Z,5.60
2023-01-31T14:55:19.791Z,5.50
2023-01-31T14:59:57.662Z,5.50
2023-01-31T15:04:24.890Z,5.40
2023-01-31T15:08:50.347Z,5.30
2023-01-31T15:13:44.212Z,5.20
2023-01-31T15:18:20.125Z,5.20
2023-01-31T15:22:45.561Z,5.10
2023-01-31T15:27:15.771Z,5.00
2023-01-31T15:31:44.966Z,5.00
2023-01-31T15:36:18.581Z,4.90
2023-01-31T15:40:42.415Z,4.90
2023-01-31T15:45:31.050Z,4.90
2023-01-31T15:49:54.965Z,4.90
2023-01-31T15:54:20.259Z,4.90
2023-01-31T15:58:48.400Z,5.00
2023-01-31T16:03:21.933Z,5.10
2023-01-31T16:07:48.517Z,5.10
2023-01-31T16:12:15.367Z,5.20
2023-01-31T16:16:39.203Z,5.20
2023-01-31T16:21:15.863Z,5.30
2023-01-31T16:25:39.944Z,5.30
2023-01-31T16:30:06.460Z,5.30
2023-01-31T16:34:35.125Z,5.30
2023-01-31T16:39:02.061Z,5.40
2023-01-31T16:43:28.635Z,5.40
2023-01-31T16:47:53.887Z,5.40
2023-01-31T16:52:25.526Z,5.40
2023-01-31T16:57:07.074Z,5.50
2023-01-31T17:01:32.719Z,5.50
2023-01-31T17:05:57.971Z,5.50
2023-01-31T17:10:23.670Z,5.50
2023-01-31T17:14:47.846Z,5.50
2023-01-31T17:19:12.640Z,5.50
2023-01-31T17:23:38.048Z,5.50
2023-01-31T17:28:01.981Z,5.50
2023-01-31T17:32:25.759Z,5.50
2023-01-31T17:36:49.554Z,5.50
2023-01-31T17:41:17.020Z,5.50
2023-01-31T17:45:41.379Z,5.50
2023-01-31T17:50:05.920Z,5.40
2023-01-31T17:54:29.953Z,5.40
2023-01-31T17:58:55.646Z,5.40
2023-01-31T18:03:20.871Z,5.40
2023-01-31T18:07:44.676Z,5.40
2023-01-31T18:12:09.225Z,5.40
2023-01-31T18:16:34.399Z,5.40
2023-01-31T18:20:58.166Z,5.40
2023-01-31T18:25:22.324Z,5.40
2023-01-31T18:29:46.341Z,5.40
2023-01-31T18:34:12.107Z,5.50
2023-01-31T18:38:35.907Z,5.50
2023-01-31T18:42:59.847Z,5.50
2023-01-31T18:47:23.876Z,5.50
2023-01-31T18:51:49.825Z,5.60
2023-01-31T18:56:15.013Z,5.60
2023-01-31T19:00:38.902Z,5.60
2023-01-31T19:05:03.038Z,5.60
2023-01-31T19:09:28.265Z,5.70
2023-01-31T19:13:52.632Z,5.60
2023-01-31T19:18:16.332Z,5.60
2023-01-31T19:22:40.464Z,5.60
2023-01-31T19:27:05.794Z,5.60
2023-01-31T19:31:31.921Z,5.50
2023-01-31T19:35:55.760Z,5.40
2023-01-31T19:40:19.715Z,5.40
2023-01-31T19:44:44.917Z,5.30
2023-01-31T19:49:08.787Z,5.30
2023-01-31T19:53:32.592Z,5.30
2023-01-31T19:57:56.408Z,5.30
2023-01-31T20:02:21.631Z,5.30
2023-01-31T20:06:46.633Z,5.40
2023-01-31T20:11:11.263Z,5.40
2023-01-31T20:15:35.837Z,5.40
2023-01-31T20:20:01.670Z,5.40
2023-01-31T20:24:25.517Z,5.40
2023-01-31T20:28:49.808Z,5.50
2023-01-31T20:33:14.343Z,5.40
2023-01-31T20:37:34.438Z,5.30
2023-01-31T20:41:54.080Z,5.30
2023-01-31T20:46:19.455Z,5.20
2023-01-31T20:50:43.471Z,5.20
2023-01-31T20:55:10.463Z,5.10
2023-01-31T20:59:34.642Z,5.00
2023-01-31T21:03:58.488Z,4.90
2023-01-31T21:08:22.875Z,4.80
2023-01-31T21:12:48.199Z,4.80
2023-01-31T21:17:14.031Z,4.70
2023-01-31T21:21:37.995Z,4.70
2023-01-31T21:26:02.273Z,4.60
2023-01-31T21:30:27.482Z,4.60
2023-01-31T21:34:52.333Z,4.50
2023-01-31T21:39:16.589Z,4.40
2023-01-31T21:43:41.576Z,4.40
2023-01-31T21:48:24.532Z,4.30
2023-01-31T21:52:48.431Z,4.30
2023-01-31T21:57:12.200Z,4.20
2023-01-31T22:01:37.050Z,4.20
2023-01-31T22:06:07.554Z,4.20
2023-01-31T22:10:31.498Z,4.10
2023-01-31T22:14:55.378Z,4.10
2023-01-31T22:19:19.303Z,4.00
2023-01-31T22:23:47.433Z,4.00
2023-01-31T22:28:11.734Z,3.90
2023-01-31T22:32:35.499Z,4.00
2023-01-31T22:36:59.512Z,3.90
2023-01-31T22:41:25.184Z,3.90
2023-01-31T22:45:50.726Z,3.90
2023-01-31T22:50:15.166Z,3.90
2023-01-31T22:54:39.001Z,3.90
2023-01-31T22:59:06.087Z,3.90
2023-01-31T23:03:30.326Z,3.80
2023-01-31T23:07:57.305Z,3.80
2023-01-31T23:12:21.450Z,3.80
2023-01-31T23:17:03.987Z,3.70
2023-01-31T23:21:27.882Z,3.80
2023-01-31T23:25:51.855Z,3.80
2023-01-31T23:30:18.318Z,3.80
2023-01-31T23:34:43.829Z,3.80
2023-01-31T23:39:08.037Z,3.80
2023-01-31T23:43:31.902Z,3.80
2023-01-31T23:47:55.872Z,3.70
2023-01-31T23:52:21.652Z,3.80
2023-01-31T23:56:45.698Z,3.70
